Time;durP1;ratioP1;P1;durP2;ratioP2;P2;SDS_P1;SDS_P2;PMS_P1;PMS_P2;Temp;Humidity;BMP_temperature;BMP_pressure;BME280_temperature;BME280_humidity;BME280_pressure;Samples;Min_cycle;Max_cycle;Signal;HPM_P1;HPM_P2
2021/04/04 00:00:27;;;;;;;4.55;2.08;;;21.30;42.10;;;;;;5072074;28;20123;-64
2021/04/04 00:02:53;;;;;;;2.70;1.27;;;21.30;42.10;;;;;;5071579;28;20472;-64
2021/04/04 00:05:19;;;;;;;2.53;1.40;;;21.20;42.00;;;;;;5079207;28;20437;-64
2021/04/04 00:07:45;;;;;;;3.00;1.35;;;21.30;42.10;;;;;;5089542;28;20134;-64
2021/04/04 00:10:13;;;;;;;3.28;2.00;;;21.30;42.10;;;;;;5084062;28;20029;-64
2021/04/04 00:12:39;;;;;;;1.98;1.23;;;21.20;42.00;;;;;;5087305;28;20020;-62
2021/04/04 00:15:08;;;;;;;2.00;1.27;;;21.20;42.00;;;;;;5078857;28;20049;-64
2021/04/04 00:17:33;;;;;;;2.47;1.58;;;21.20;42.00;;;;;;5072792;28;20031;-64
2021/04/04 00:19:59;;;;;;;3.03;1.90;;;21.20;42.00;;;;;;5075366;28;20218;-64
2021/04/04 00:22:25;;;;;;;2.75;1.60;;;21.20;41.90;;;;;;5081991;28;20042;-64
2021/04/04 00:24:50;;;;;;;3.42;1.80;;;21.20;41.80;;;;;;5088794;28;20027;-64
2021/04/04 00:27:16;;;;;;;3.17;1.98;;;21.20;41.80;;;;;;5094788;28;20062;-64
2021/04/04 00:29:41;;;;;;;4.57;1.60;;;21.20;41.80;;;;;;5084399;28;20056;-63
2021/04/04 00:32:07;;;;;;;2.67;1.40;;;21.20;41.70;;;;;;5074444;28;20110;-64
2021/04/04 00:34:33;;;;;;;4.68;1.83;;;21.20;41.70;;;;;;5082662;28;20418;-64
2021/04/04 00:36:58;;;;;;;3.20;1.95;;;21.20;41.80;;;;;;5083444;28;20100;-64
2021/04/04 00:39:25;;;;;;;3.47;1.55;;;21.20;41.80;;;;;;5081345;28;20466;-64
2021/04/04 00:41:51;;;;;;;1.63;1.13;;;21.20;41.80;;;;;;5075104;28;20056;-63
2021/04/04 00:44:16;;;;;;;3.92;1.60;;;21.20;41.70;;;;;;5075396;28;20457;-64
2021/04/04 00:46:43;;;;;;;2.10;1.23;;;21.20;41.70;;;;;;5085451;28;20514;-63
2021/04/04 00:49:08;;;;;;;5.45;2.70;;;21.20;41.70;;;;;;5092943;28;20362;-63
2021/04/04 00:51:35;;;;;;;2.00;1.33;;;21.20;41.60;;;;;;5093566;28;20028;-64
2021/04/04 00:54:01;;;;;;;3.20;1.77;;;21.20;41.70;;;;;;5090371;28;20111;-64
2021/04/04 00:56:27;;;;;;;1.98;1.25;;;21.20;41.70;;;;;;5094030;28;20040;-64
2021/04/04 00:58:53;;;;;;;2.22;1.52;;;21.20;41.70;;;;;;5089153;28;20473;-64
2021/04/04 01:01:21;;;;;;;3.45;1.60;;;21.20;41.80;;;;;;5089802;28;20373;-64
2021/04/04 01:03:46;;;;;;;2.53;1.52;;;21.20;41.70;;;;;;5093018;28;20388;-64
2021/04/04 01:06:12;;;;;;;1.92;1.20;;;21.20;41.60;;;;;;5088573;28;20107;-64
2021/04/04 01:08:40;;;;;;;3.30;1.67;;;21.20;41.60;;;;;;5074163;28;20024;-63
2021/04/04 01:11:07;;;;;;;2.33;1.20;;;21.20;41.70;;;;;;5074091;28;20082;-64
2021/04/04 01:13:54;;;;;;;2.58;1.58;;;21.20;41.60;;;;;;5088512;28;20075;-64
2021/04/04 01:16:28;;;;;;;2.05;1.17;;;21.10;41.60;;;;;;5081293;28;20116;-64
2021/04/04 01:18:56;;;;;;;3.33;1.45;;;21.20;41.60;;;;;;5081210;28;20107;-64
2021/04/04 01:21:32;;;;;;;2.33;1.40;;;21.10;41.50;;;;;;5084322;28;20365;-64
2021/04/04 01:24:07;;;;;;;2.05;1.40;;;21.10;41.50;;;;;;5092845;28;20748;-64
2021/04/04 01:26:36;;;;;;;2.35;1.70;;;21.10;41.50;;;;;;5074041;28;20058;-64
2021/04/04 01:29:05;;;;;;;2.83;1.42;;;21.10;41.50;;;;;;5087854;28;20036;-64
2021/04/04 01:31:31;;;;;;;2.95;1.58;;;21.10;41.50;;;;;;5084708;28;20054;-64
2021/04/04 01:33:58;;;;;;;2.63;1.45;;;21.10;41.40;;;;;;5092145;28;20120;-64
2021/04/04 01:36:26;;;;;;;2.78;1.50;;;21.10;41.40;;;;;;5092014;28;20035;-64
2021/04/04 01:38:53;;;;;;;2.55;1.48;;;21.10;41.40;;;;;;5072493;28;20028;-64
2021/04/04 01:41:25;;;;;;;2.08;1.25;;;21.10;41.40;;;;;;5073806;28;20021;-64
2021/04/04 01:44:06;;;;;;;2.00;1.30;;;21.10;41.40;;;;;;5081868;28;20111;-64
2021/04/04 01:46:32;;;;;;;2.10;1.38;;;21.10;41.30;;;;;;5083054;28;20028;-64
2021/04/04 01:48:58;;;;;;;3.30;1.30;;;21.10;41.30;;;;;;5081817;28;20140;-64
2021/04/04 01:51:26;;;;;;;3.45;1.40;;;21.10;41.30;;;;;;5087509;28;20028;-64
2021/04/04 01:53:54;;;;;;;2.33;1.30;;;21.10;41.30;;;;;;5072350;28;20036;-64
2021/04/04 01:56:21;;;;;;;1.55;1.13;;;21.10;41.30;;;;;;5082078;28;20033;-64
2021/04/04 01:58:48;;;;;;;3.83;1.38;;;21.10;41.30;;;;;;5072185;28;20024;-64
2021/04/04 02:01:14;;;;;;;2.80;1.40;;;21.10;41.20;;;;;;5089194;28;20493;-64
2021/04/04 02:03:42;;;;;;;2.67;1.40;;;21.10;41.30;;;;;;5091867;28;20061;-64
2021/04/04 02:06:13;;;;;;;2.78;1.40;;;21.10;41.90;;;;;;5090987;28;20059;-64
2021/04/04 02:08:41;;;;;;;1.67;1.05;;;21.10;41.30;;;;;;5090573;28;20028;-65
2021/04/04 02:11:09;;;;;;;3.10;1.27;;;21.10;41.30;;;;;;5092216;28;20030;-64
2021/04/04 02:13:36;;;;;;;2.03;1.20;;;21.10;41.20;;;;;;5091226;28;20063;-64
2021/04/04 02:16:05;;;;;;;2.45;1.40;;;21.10;41.30;;;;;;5071861;28;20028;-64
2021/04/04 02:18:30;;;;;;;2.15;1.38;;;21.10;41.20;;;;;;5080285;28;20120;-65
2021/04/04 02:20:59;;;;;;;2.47;1.50;;;21.10;41.30;;;;;;5081143;28;20557;-64
2021/04/04 02:23:26;;;;;;;2.22;1.30;;;21.10;41.20;;;;;;5092610;28;20032;-64
2021/04/04 02:25:56;;;;;;;2.17;1.67;;;21.10;41.10;;;;;;5074418;28;20041;-64
2021/04/04 02:28:22;;;;;;;1.60;1.15;;;21.10;41.20;;;;;;5084824;28;20389;-64
2021/04/04 02:30:49;;;;;;;3.00;1.45;;;21.10;41.20;;;;;;5091445;28;20024;-64
2021/04/04 02:33:22;;;;;;;1.83;1.25;;;21.10;41.10;;;;;;5089055;28;20028;-64
2021/04/04 02:35:53;;;;;;;2.05;1.45;;;21.10;41.10;;;;;;5085677;28;20029;-64
2021/04/04 02:38:26;;;;;;;2.40;1.27;;;21.10;41.10;;;;;;5072065;28;20036;-64
2021/04/04 02:40:53;;;;;;;2.47;1.20;;;21.10;41.10;;;;;;5091297;28;20085;-65
2021/04/04 02:43:23;;;;;;;2.00;1.50;;;21.10;41.10;;;;;;5091564;28;20028;-64
2021/04/04 02:45:50;;;;;;;2.33;1.35;;;21.10;41.10;;;;;;5082875;28;20024;-64
2021/04/04 02:48:19;;;;;;;2.50;1.50;;;21.10;41.10;;;;;;5084541;28;20108;-64
2021/04/04 02:50:47;;;;;;;3.55;1.40;;;21.10;41.10;;;;;;5089512;28;20560;-62
2021/04/04 02:53:15;;;;;;;2.95;1.73;;;21.10;41.10;;;;;;5090787;28;20099;-64
2021/04/04 02:55:42;;;;;;;3.92;1.58;;;21.10;41.00;;;;;;5082959;28;20037;-64
2021/04/04 02:58:09;;;;;;;2.10;1.25;;;21.10;41.00;;;;;;5083774;28;20032;-64
2021/04/04 03:00:37;;;;;;;2.70;1.52;;;21.10;41.00;;;;;;5091791;28;20028;-64
2021/04/04 03:03:05;;;;;;;2.83;1.10;;;21.10;41.00;;;;;;5091236;28;20032;-64
2021/04/04 03:05:31;;;;;;;2.35;1.25;;;21.10;41.00;;;;;;5092247;28;20032;-64
2021/04/04 03:08:01;;;;;;;2.10;1.55;;;21.10;41.00;;;;;;5090597;28;20047;-64
2021/04/04 03:10:28;;;;;;;2.97;1.30;;;21.10;41.00;;;;;;5086738;28;20571;-64
2021/04/04 03:12:54;;;;;;;2.78;1.48;;;21.10;41.00;;;;;;5078715;28;20106;-63
2021/04/04 03:15:20;;;;;;;2.80;1.40;;;21.10;41.00;;;;;;5077455;28;20063;-64
2021/04/04 03:17:48;;;;;;;3.42;1.40;;;21.00;40.90;;;;;;5090711;28;20024;-62
2021/04/04 03:20:15;;;;;;;5.53;1.30;;;21.10;40.90;;;;;;5074939;28;20040;-64
2021/04/04 03:22:45;;;;;;;2.00;1.25;;;21.00;40.90;;;;;;5076609;28;20043;-65
2021/04/04 03:25:13;;;;;;;2.33;1.95;;;21.10;40.90;;;;;;5071787;28;20089;-64
2021/04/04 03:27:42;;;;;;;1.73;1.30;;;21.10;41.60;;;;;;5076555;28;20032;-64
2021/04/04 03:30:34;;;;;;;1.95;1.10;;;21.10;40.90;;;;;;5081696;28;20530;-64
2021/04/04 03:32:55;;;;;;;1.42;1.20;;;21.00;40.80;;;;;;5090255;28;20036;-65
2021/04/04 03:35:21;;;;;;;2.13;1.35;;;21.00;40.80;;;;;;5073663;28;20036;-64
2021/04/04 03:37:47;;;;;;;2.58;1.38;;;21.10;40.80;;;;;;5073978;28;20023;-63
2021/04/04 03:40:13;;;;;;;3.10;1.70;;;21.10;40.90;;;;;;5084444;28;20028;-64
2021/04/04 03:42:39;;;;;;;3.38;1.30;;;21.00;40.80;;;;;;5071654;28;20377;-65
2021/04/04 03:45:06;;;;;;;2.67;1.40;;;21.00;40.80;;;;;;5079403;28;20095;-64
2021/04/04 03:47:33;;;;;;;2.45;1.30;;;21.00;40.70;;;;;;5081016;28;20032;-64
2021/04/04 03:49:59;;;;;;;2.70;1.92;;;21.00;40.70;;;;;;5089864;28;20552;-64
2021/04/04 03:52:25;;;;;;;2.20;1.30;;;21.00;40.80;;;;;;5082114;28;20028;-64
2021/04/04 03:54:51;;;;;;;1.83;1.23;;;21.00;40.80;;;;;;5089012;28;20427;-64
2021/04/04 03:57:21;;;;;;;4.00;1.50;;;21.00;40.80;;;;;;5087921;28;20036;-64
2021/04/04 03:59:47;;;;;;;2.83;1.20;;;21.00;40.80;;;;;;5076919;28;20090;-63
2021/04/04 04:02:13;;;;;;;2.25;1.20;;;21.00;41.40;;;;;;5083956;28;20024;-64
2021/04/04 04:04:39;;;;;;;1.80;1.20;;;21.00;40.70;;;;;;5089824;28;20020;-64
2021/04/04 04:07:06;;;;;;;2.30;1.10;;;21.00;40.80;;;;;;5074676;28;20024;-64
2021/04/04 04:09:33;;;;;;;1.60;1.10;;;21.00;40.70;;;;;;5076136;28;20115;-64
2021/04/04 04:11:59;;;;;;;2.25;1.13;;;21.00;40.70;;;;;;5087750;28;20031;-64
2021/04/04 04:14:25;;;;;;;2.17;1.33;;;21.00;40.70;;;;;;5093334;28;20389;-64
2021/04/04 04:16:51;;;;;;;2.33;1.30;;;21.00;40.70;;;;;;5091653;28;20024;-64
2021/04/04 04:19:18;;;;;;;3.35;1.50;;;21.00;40.70;;;;;;5079808;28;20494;-63
2021/04/04 04:21:44;;;;;;;2.13;1.58;;;21.00;40.70;;;;;;5084327;28;20032;-64
2021/04/04 04:24:12;;;;;;;2.60;1.40;;;21.00;40.60;;;;;;5084140;28;20020;-65
2021/04/04 04:26:41;;;;;;;3.05;1.33;;;21.00;40.70;;;;;;5094796;28;20032;-64
2021/04/04 04:29:09;;;;;;;1.85;1.15;;;21.00;40.70;;;;;;5093256;28;20089;-63
2021/04/04 04:31:44;;;;;;;2.70;1.13;;;21.00;40.70;;;;;;5094723;28;20109;-64
2021/04/04 04:34:11;;;;;;;2.35;1.08;;;21.00;40.70;;;;;;5084833;28;20057;-65
2021/04/04 04:36:39;;;;;;;2.10;1.17;;;21.00;40.70;;;;;;5093931;28;20047;-63
2021/04/04 04:39:08;;;;;;;2.08;1.23;;;21.00;40.70;;;;;;5093440;28;20425;-63
2021/04/04 04:41:41;;;;;;;3.00;1.48;;;21.00;40.60;;;;;;5091447;28;20477;-64
2021/04/04 04:44:08;;;;;;;3.40;1.23;;;21.00;40.60;;;;;;5074002;28;20040;-64
2021/04/04 04:46:34;;;;;;;2.22;1.30;;;21.00;40.70;;;;;;5084523;28;20024;-64
2021/04/04 04:49:05;;;;;;;3.08;1.23;;;21.00;40.60;;;;;;5080751;28;20028;-64
2021/04/04 04:51:31;;;;;;;1.92;1.27;;;21.00;40.60;;;;;;5082100;28;20029;-64
2021/04/04 04:53:57;;;;;;;2.38;1.30;;;21.00;40.60;;;;;;5080073;28;20036;-64
2021/04/04 04:56:23;;;;;;;2.22;1.58;;;21.00;40.70;;;;;;5094167;28;20136;-63
2021/04/04 04:58:50;;;;;;;2.85;1.52;;;21.00;40.60;;;;;;5080040;28;20037;-62
2021/04/04 05:01:23;;;;;;;2.97;1.23;;;21.00;40.50;;;;;;5090386;28;20024;-64
2021/04/04 05:03:49;;;;;;;2.25;1.20;;;21.00;40.60;;;;;;5078453;28;20097;-63
2021/04/04 05:06:15;;;;;;;1.42;1.10;;;21.00;40.60;;;;;;5086758;28;20028;-63
2021/04/04 05:08:45;;;;;;;1.60;1.10;;;21.00;40.60;;;;;;5075176;28;20384;-63
2021/04/04 05:11:18;;;;;;;2.75;1.17;;;21.00;40.60;;;;;;5073605;28;20038;-65
2021/04/04 05:13:45;;;;;;;2.75;1.30;;;21.00;40.50;;;;;;5091465;28;20101;-64
2021/04/04 05:16:13;;;;;;;1.85;1.15;;;21.00;40.40;;;;;;5092843;28;20052;-64
2021/04/04 05:18:54;;;;;;;2.35;1.20;;;21.00;40.50;;;;;;5086118;28;20052;-67
2021/04/04 05:21:28;;;;;;;2.15;1.02;;;21.00;40.60;;;;;;5086831;28;20402;-65
2021/04/04 05:24:01;;;;;;;2.90;1.60;;;21.00;40.50;;;;;;5092652;28;20036;-64
2021/04/04 05:26:29;;;;;;;3.08;1.33;;;21.00;40.50;;;;;;5092795;28;20378;-64
2021/04/04 05:29:00;;;;;;;2.17;1.50;;;21.00;40.50;;;;;;5092708;28;20468;-64
2021/04/04 05:31:26;;;;;;;2.83;1.35;;;21.00;40.60;;;;;;5091111;28;20020;-65
2021/04/04 05:33:52;;;;;;;2.33;1.10;;;21.00;40.50;;;;;;5091414;28;20487;-64
2021/04/04 05:36:17;;;;;;;2.38;1.02;;;21.00;40.50;;;;;;5084425;28;20041;-65
2021/04/04 05:38:43;;;;;;;2.58;1.20;;;21.00;40.60;;;;;;5092640;28;20016;-64
2021/04/04 05:41:11;;;;;;;3.60;1.20;;;21.00;40.50;;;;;;5092571;28;20066;-65
2021/04/04 05:43:40;;;;;;;2.05;1.30;;;21.00;40.50;;;;;;5084154;28;20028;-64
2021/04/04 05:46:22;;;;;;;2.63;1.58;;;20.90;40.50;;;;;;5085915;28;20041;-63
2021/04/04 05:49:03;;;;;;;4.85;1.33;;;21.00;40.60;;;;;;5076095;28;20020;-64
2021/04/04 05:52:01;;;;;;;10.48;2.63;;;21.00;40.50;;;;;;5093412;28;20032;-61
2021/04/04 05:54:47;;;;;;;6.30;1.42;;;21.00;40.70;;;;;;5093582;28;20016;-64
2021/04/04 05:57:41;;;;;;;4.07;1.13;;;21.00;40.80;;;;;;5072542;28;20028;-63
2021/04/04 06:00:10;;;;;;;3.75;1.42;;;21.10;40.70;;;;;;5072514;28;20043;-65
2021/04/04 06:02:54;;;;;;;4.18;1.42;;;21.10;40.70;;;;;;5081826;28;20039;-63
2021/04/04 06:05:54;;;;;;;2.55;1.17;;;21.10;40.70;;;;;;5082020;28;20075;-65
2021/04/04 06:08:34;;;;;;;3.40;1.20;;;21.10;40.60;;;;;;5088202;28;20027;-64
2021/04/04 06:11:22;;;;;;;5.50;1.23;;;21.10;40.60;;;;;;5091075;28;20107;-61
2021/04/04 06:14:00;;;;;;;5.30;1.40;;;21.20;40.70;;;;;;5092063;28;20079;-65
2021/04/04 06:16:51;;;;;;;4.85;1.58;;;21.20;40.60;;;;;;5090678;28;20084;-52
2021/04/04 06:19:27;;;;;;;4.00;1.40;;;21.20;40.50;;;;;;5087389;28;20024;-55
2021/04/04 06:22:16;;;;;;;3.58;1.27;;;21.20;40.40;;;;;;5089657;28;20036;-59
2021/04/04 06:25:11;;;;;;;3.85;1.15;;;21.20;41.00;;;;;;5092522;28;20107;-56
2021/04/04 06:27:53;;;;;;;5.43;1.50;;;21.30;40.50;;;;;;5072766;28;20059;-57
2021/04/04 06:30:49;;;;;;;4.75;1.35;;;21.30;40.40;;;;;;5071961;28;20025;-58
2021/04/04 06:33:28;;;;;;;2.58;1.38;;;21.30;40.30;;;;;;5065751;28;20044;-58
2021/04/04 06:36:24;;;;;;;1.80;1.20;;;21.30;40.20;;;;;;5071418;28;20107;-61
2021/04/04 06:39:12;;;;;;;4.13;1.48;;;21.30;40.20;;;;;;5075939;28;20500;-59
2021/04/04 06:41:53;;;;;;;3.65;1.20;;;21.40;40.20;;;;;;5089191;28;20025;-55
2021/04/04 06:44:37;;;;;;;5.97;1.50;;;21.40;40.10;;;;;;5071956;28;20025;-56
2021/04/04 06:47:28;;;;;;;6.43;1.50;;;21.40;40.00;;;;;;5085409;28;20102;-60
2021/04/04 06:50:18;;;;;;;4.18;1.40;;;21.40;40.10;;;;;;5071340;28;20024;-60
2021/04/04 06:53:00;;;;;;;2.08;1.58;;;21.40;40.00;;;;;;5072391;28;20033;-59
2021/04/04 06:55:43;;;;;;;7.82;1.67;;;21.40;40.00;;;;;;5077756;28;20028;-65
2021/04/04 06:58:13;;;;;;;7.72;2.00;;;21.40;40.20;;;;;;5089703;28;20037;-66
2021/04/04 07:00:53;;;;;;;40.50;2.60;;;21.50;40.00;;;;;;5087865;28;20042;-68
2021/04/04 07:03:21;;;;;;;29.30;2.38;;;21.50;40.10;;;;;;5072037;28;20039;-67
2021/04/04 07:05:58;;;;;;;30.58;3.13;;;21.50;40.00;;;;;;5072413;28;20028;-66
2021/04/04 07:08:24;;;;;;;9.73;1.90;;;21.60;39.90;;;;;;5086928;28;20377;-67
2021/04/04 07:11:09;;;;;;;12.15;1.77;;;21.60;39.90;;;;;;5091552;28;20043;-69
2021/04/04 07:14:12;;;;;;;9.55;2.10;;;21.60;39.90;;;;;;5079402;28;20055;-68
2021/04/04 07:16:52;;;;;;;3.88;1.63;;;21.50;39.90;;;;;;5079740;28;20032;-67
2021/04/04 07:19:55;;;;;;;12.52;1.83;;;21.60;39.80;;;;;;5072805;28;20037;-57
2021/04/04 07:22:48;;;;;;;10.40;2.00;;;21.60;40.00;;;;;;5088383;28;20042;-59
2021/04/04 07:25:53;;;;;;;10.40;2.08;;;21.50;40.00;;;;;;5076860;28;20422;-59
2021/04/04 07:29:05;;;;;;;8.23;1.85;;;21.60;39.90;;;;;;5079844;28;20040;-63
2021/04/04 07:31:45;;;;;;;8.32;1.98;;;21.60;40.00;;;;;;5089908;28;20024;-65
2021/04/04 07:34:38;;;;;;;8.95;2.15;;;21.60;39.90;;;;;;5090441;28;20074;-64
2021/04/04 07:37:33;;;;;;;7.55;1.80;;;21.60;39.10;;;;;;5087642;28;20119;-65
2021/04/04 07:40:14;;;;;;;9.30;2.08;;;21.70;38.80;;;;;;5062561;28;20048;-62
2021/04/04 07:43:05;;;;;;;9.55;2.22;;;21.70;38.70;;;;;;5075432;28;20527;-61
2021/04/04 07:45:37;;;;;;;20.65;2.90;;;21.70;38.70;;;;;;5089004;28;20032;-61
2021/04/04 07:48:12;;;;;;;;;;;21.70;38.00;;;;;;5071359;28;20082;-61
2021/04/04 07:50:46;;;;;;;9.73;2.58;;;21.70;38.30;;;;;;5080798;28;20357;-63
2021/04/04 07:53:33;;;;;;;10.98;3.08;;;21.70;37.70;;;;;;5090871;28;20024;-62
2021/04/04 07:56:11;;;;;;;10.05;2.85;;;21.70;38.10;;;;;;5089734;28;20040;-62
2021/04/04 07:59:09;;;;;;;11.27;2.47;;;21.70;38.70;;;;;;5088224;28;20025;-60
2021/04/04 08:02:17;;;;;;;20.35;2.72;;;21.70;37.50;;;;;;5089217;28;20389;-63
2021/04/04 08:05:09;;;;;;;16.23;2.90;;;21.70;37.70;;;;;;5082520;28;20031;-63
2021/04/04 08:07:59;;;;;;;6.75;2.22;;;21.70;37.00;;;;;;5071299;28;20016;-59
2021/04/04 08:10:51;;;;;;;8.00;2.40;;;21.70;37.30;;;;;;5074937;28;20044;-59
2021/04/04 08:13:21;;;;;;;;;;;21.50;37.30;;;;;;5083925;28;20012;-65
2021/04/04 08:16:08;;;;;;;11.07;2.50;;;21.50;37.00;;;;;;5088561;28;19908;-62
2021/04/04 08:18:36;;;;;;;5.80;2.00;;;21.60;36.10;;;;;;5077418;28;20038;-64
2021/04/04 08:21:05;;;;;;;9.43;2.17;;;21.60;36.60;;;;;;5088216;28;20047;-63
2021/04/04 08:24:09;;;;;;;10.05;2.65;;;21.70;36.20;;;;;;5083614;28;20028;-63
2021/04/04 08:26:47;;;;;;;10.88;2.60;;;21.60;36.10;;;;;;5073414;28;20044;-67
2021/04/04 08:29:40;;;;;;;9.27;2.50;;;21.70;36.10;;;;;;5069990;28;20389;-62
2021/04/04 08:32:10;;;;;;;11.43;2.47;;;21.60;36.60;;;;;;5070485;28;20028;-65
2021/04/04 08:34:52;;;;;;;10.52;2.47;;;21.60;36.50;;;;;;5089195;28;20032;-63
2021/04/04 08:37:19;;;;;;;;;;;21.60;36.90;;;;;;5090287;28;20617;-64
2021/04/04 08:40:00;;;;;;;10.45;2.17;;;21.70;36.40;;;;;;5079982;28;19975;-66
2021/04/04 08:42:30;;;;;;;21.52;3.25;;;21.70;36.70;;;;;;5070974;28;20090;-63
2021/04/04 08:45:09;;;;;;;8.27;2.22;;;21.70;37.10;;;;;;5073162;28;20029;-63
2021/04/04 08:47:37;;;;;;;7.20;1.95;;;21.80;37.20;;;;;;5075615;28;20523;-70
2021/04/04 08:50:11;;;;;;;13.30;2.13;;;21.80;37.60;;;;;;5084185;28;20035;-69
2021/04/04 08:52:58;;;;;;;4.88;2.20;;;21.80;37.80;;;;;;5092852;28;20035;-67
2021/04/04 08:55:27;;;;;;;8.85;2.30;;;21.90;38.20;;;;;;5089661;28;20036;-66
2021/04/04 08:57:55;;;;;;;9.82;2.33;;;21.90;38.60;;;;;;5081645;28;20087;-65
2021/04/04 09:00:24;;;;;;;4.05;2.28;;;21.80;39.20;;;;;;5092761;28;20064;-66
2021/04/04 09:03:03;;;;;;;13.77;2.50;;;21.80;39.50;;;;;;5092915;28;20028;-70
2021/04/04 09:05:30;;;;;;;9.07;2.63;;;21.90;39.40;;;;;;5091902;28;20039;-64
2021/04/04 09:08:01;;;;;;;10.93;2.95;;;21.90;39.70;;;;;;5093956;28;20025;-65
2021/04/04 09:10:29;;;;;;;10.40;2.20;;;22.00;39.60;;;;;;5077752;28;20500;-67
2021/04/04 09:12:57;;;;;;;6.88;2.13;;;21.90;39.80;;;;;;5075398;28;20043;-67
2021/04/04 09:15:24;;;;;;;8.68;2.00;;;21.80;39.90;;;;;;5074209;28;20075;-68
2021/04/04 09:17:55;;;;;;;6.47;2.10;;;21.80;40.10;;;;;;5072126;28;20418;-65
2021/04/04 09:20:36;;;;;;;15.77;2.28;;;21.80;40.00;;;;;;5082800;28;20040;-63
2021/04/04 09:23:04;;;;;;;7.60;1.95;;;21.80;40.50;;;;;;5080080;28;20035;-71
2021/04/04 09:25:31;;;;;;;7.72;2.30;;;21.90;40.40;;;;;;5093324;28;20035;-72
2021/04/04 09:28:04;;;;;;;8.43;2.95;;;21.40;35.00;;;;;;5093335;28;20086;-66
2021/04/04 09:30:35;;;;;;;6.93;2.67;;;21.30;31.20;;;;;;5093650;28;20035;-76
2021/04/04 09:33:03;;;;;;;5.43;2.90;;;21.10;30.80;;;;;;5091052;28;20115;-63
2021/04/04 09:35:30;;;;;;;8.13;2.40;;;20.70;29.30;;;;;;5087804;28;20024;-66
2021/04/04 09:38:15;;;;;;;5.10;2.13;;;20.60;32.80;;;;;;5093465;28;20028;-66
2021/04/04 09:40:43;;;;;;;6.55;2.03;;;20.90;34.50;;;;;;5078703;28;20040;-68
2021/04/04 09:43:12;;;;;;;8.25;2.83;;;21.20;34.00;;;;;;5073655;28;20086;-65
2021/04/04 09:45:39;;;;;;;4.65;2.35;;;21.30;33.80;;;;;;5087357;28;20081;-66
2021/04/04 09:48:27;;;;;;;8.00;1.88;;;21.50;33.90;;;;;;5084484;28;20036;-66
2021/04/04 09:51:09;;;;;;;7.93;2.55;;;21.40;32.50;;;;;;5083546;28;20040;-67
2021/04/04 09:53:41;;;;;;;4.85;1.70;;;21.20;32.70;;;;;;5083841;28;20461;-64
2021/04/04 09:56:18;;;;;;;8.23;2.08;;;21.20;33.70;;;;;;5092216;28;20032;-64
2021/04/04 09:58:48;;;;;;;8.63;2.58;;;21.30;34.30;;;;;;5072636;28;20025;-64
2021/04/04 10:01:22;;;;;;;6.95;2.08;;;21.30;34.80;;;;;;5072236;28;20036;-63
2021/04/04 10:03:57;;;;;;;6.63;1.58;;;21.40;35.10;;;;;;5083957;28;20020;-61
2021/04/04 10:06:22;;;;;;;7.25;1.63;;;21.40;35.10;;;;;;5092025;28;20020;-64
2021/04/04 10:08:55;;;;;;;6.22;1.58;;;21.70;35.30;;;;;;5091777;28;20032;-62
2021/04/04 10:11:23;;;;;;;8.93;1.60;;;21.90;34.80;;;;;;5088445;28;20024;-61
2021/04/04 10:13:50;;;;;;;7.82;1.50;;;21.80;35.00;;;;;;5092414;28;20048;-61
2021/04/04 10:16:23;;;;;;;3.80;1.30;;;21.80;35.20;;;;;;5089098;28;20032;-61
2021/04/04 10:19:03;;;;;;;5.45;1.42;;;21.60;35.10;;;;;;5092721;28;20481;-63
2021/04/04 10:21:29;;;;;;;19.80;2.45;;;21.60;35.40;;;;;;5085907;28;20032;-62
2021/04/04 10:23:55;;;;;;;5.75;2.00;;;21.50;35.70;;;;;;5092559;28;20058;-62
2021/04/04 10:26:22;;;;;;;8.93;1.50;;;21.40;36.10;;;;;;5089403;28;20028;-61
2021/04/04 10:29:02;;;;;;;7.07;1.73;;;21.40;36.10;;;;;;5077504;28;20386;-61
2021/04/04 10:31:46;;;;;;;7.30;1.60;;;21.40;35.60;;;;;;5089156;28;20563;-63
2021/04/04 10:34:12;;;;;;;5.20;1.70;;;21.40;35.90;;;;;;5078069;28;20028;-61
2021/04/04 10:36:38;;;;;;;6.00;1.42;;;21.50;34.80;;;;;;5081976;28;20429;-63
2021/04/04 10:39:19;;;;;;;9.77;2.10;;;21.50;34.70;;;;;;5071541;28;20473;-63
2021/04/04 10:41:45;;;;;;;6.03;1.58;;;21.40;35.20;;;;;;5081006;28;20036;-61
2021/04/04 10:44:23;;;;;;;6.43;1.83;;;21.40;35.20;;;;;;5082827;28;20470;-63
2021/04/04 10:46:49;;;;;;;5.15;1.27;;;21.40;35.50;;;;;;5088616;28;20028;-60
2021/04/04 10:49:15;;;;;;;3.70;1.65;;;21.40;36.40;;;;;;5091131;28;20035;-53
2021/04/04 10:51:41;;;;;;;3.50;1.27;;;21.40;36.00;;;;;;5091806;28;20475;-51
2021/04/04 10:54:08;;;;;;;5.88;1.60;;;21.40;35.60;;;;;;5083449;28;20034;-48
2021/04/04 10:56:35;;;;;;;3.30;1.40;;;21.30;35.50;;;;;;5091988;28;20024;-50
2021/04/04 10:59:03;;;;;;;7.38;1.50;;;21.30;35.30;;;;;;5081065;28;20032;-55
2021/04/04 11:01:32;;;;;;;4.88;1.27;;;21.30;35.00;;;;;;5072290;28;20035;-53
2021/04/04 11:03:59;;;;;;;4.95;1.13;;;21.30;34.90;;;;;;5079316;28;20505;-54
2021/04/04 11:06:24;;;;;;;4.72;1.27;;;21.30;35.60;;;;;;5072714;28;20029;-55
2021/04/04 11:08:50;;;;;;;2.60;1.05;;;21.30;34.80;;;;;;5070466;28;20036;-51
2021/04/04 11:11:16;;;;;;;3.92;1.42;;;21.30;34.70;;;;;;5076836;28;20487;-49
2021/04/04 11:13:52;;;;;;;5.95;2.00;;;21.30;35.10;;;;;;5071681;28;20394;-49
2021/04/04 11:16:22;;;;;;;9.48;1.88;;;21.30;35.60;;;;;;5080120;28;20401;-51
2021/04/04 11:18:51;;;;;;;9.23;2.03;;;21.30;37.10;;;;;;5071815;28;20017;-52
2021/04/04 11:21:34;;;;;;;13.70;2.03;;;21.30;37.60;;;;;;5079564;28;20088;-50
2021/04/04 11:23:59;;;;;;;8.38;1.92;;;21.30;38.30;;;;;;5090316;28;20028;-53
2021/04/04 11:26:32;;;;;;;11.40;1.80;;;21.30;38.20;;;;;;5089825;28;20032;-50
2021/04/04 11:29:10;;;;;;;12.80;2.08;;;21.30;37.50;;;;;;5073265;28;20055;-51
2021/04/04 11:31:36;;;;;;;22.15;1.90;;;21.30;38.40;;;;;;5089275;28;20052;-52
2021/04/04 11:34:21;;;;;;;7.93;1.58;;;21.20;38.00;;;;;;5090583;28;20020;-56
2021/04/04 11:36:46;;;;;;;9.32;1.45;;;21.20;37.80;;;;;;5073289;28;20031;-50
2021/04/04 11:39:12;;;;;;;6.00;1.67;;;21.20;37.60;;;;;;5070873;28;20103;-46
2021/04/04 11:41:50;;;;;;;9.32;1.42;;;21.20;37.30;;;;;;5078334;28;20051;-46
2021/04/04 11:44:36;;;;;;;5.63;1.27;;;21.20;37.40;;;;;;5077347;28;20363;-49
2021/04/04 11:47:04;;;;;;;6.40;1.40;;;21.30;37.20;;;;;;5081421;28;20035;-49
2021/04/04 11:49:40;;;;;;;10.35;1.33;;;21.30;37.10;;;;;;5071462;28;20051;-53
2021/04/04 11:52:08;;;;;;;4.97;1.83;;;21.30;37.10;;;;;;5087396;28;20569;-46
2021/04/04 11:54:49;;;;;;;6.80;1.70;;;21.30;37.10;;;;;;5079110;28;20112;-53
2021/04/04 11:57:18;;;;;;;6.18;1.50;;;21.30;37.60;;;;;;5070897;28;20043;-55
2021/04/04 11:59:44;;;;;;;9.20;1.48;;;21.30;37.70;;;;;;5072238;28;20051;-51
2021/04/04 12:02:10;;;;;;;4.80;1.38;;;21.30;37.80;;;;;;5078331;28;20032;-50
2021/04/04 12:04:47;;;;;;;10.15;1.60;;;21.30;38.10;;;;;;5090369;28;20366;-55
2021/04/04 12:07:21;;;;;;;4.82;1.63;;;21.30;38.10;;;;;;5075223;28;20029;-54
2021/04/04 12:09:48;;;;;;;6.60;1.23;;;21.30;38.30;;;;;;5091161;28;20078;-48
2021/04/04 12:12:14;;;;;;;7.47;1.50;;;21.30;37.50;;;;;;5089623;28;20481;-49
2021/04/04 12:15:08;;;;;;;7.13;1.10;;;21.30;37.10;;;;;;5090288;28;20075;-54
2021/04/04 12:17:33;;;;;;;7.85;1.45;;;21.30;37.60;;;;;;5080229;28;20037;-52
2021/04/04 12:20:00;;;;;;;14.82;1.70;;;21.30;37.30;;;;;;5089710;28;20430;-53
2021/04/04 12:22:37;;;;;;;5.72;1.50;;;21.30;37.00;;;;;;5094165;28;20035;-53
2021/04/04 12:25:07;;;;;;;4.50;1.10;;;21.30;36.80;;;;;;5083175;28;20032;-55
2021/04/04 12:27:33;;;;;;;6.07;1.20;;;21.30;36.80;;;;;;5075078;28;20028;-52
2021/04/04 12:29:58;;;;;;;17.60;1.90;;;21.30;36.80;;;;;;5073667;28;20385;-53
2021/04/04 12:32:30;;;;;;;17.90;2.40;;;21.30;37.40;;;;;;5093019;28;20029;-51
2021/04/04 12:35:06;;;;;;;19.20;2.15;;;21.30;37.30;;;;;;5079602;28;20492;-54
2021/04/04 12:37:35;;;;;;;6.68;1.45;;;21.30;37.20;;;;;;5085232;28;20035;-50
2021/04/04 12:40:04;;;;;;;12.85;1.60;;;21.30;37.20;;;;;;5094470;28;20528;-52
2021/04/04 12:42:34;;;;;;;8.98;1.73;;;21.30;36.80;;;;;;5084758;28;20369;-55
2021/04/04 12:45:08;;;;;;;9.05;1.60;;;21.30;36.80;;;;;;5090898;28;20147;-54
2021/04/04 12:47:34;;;;;;;6.07;1.50;;;21.30;36.60;;;;;;5089528;28;20028;-51
2021/04/04 12:50:12;;;;;;;5.32;1.73;;;21.30;37.40;;;;;;5091129;28;20028;-57
2021/04/04 12:52:49;;;;;;;11.73;1.48;;;21.30;36.80;;;;;;5090980;28;20024;-57
2021/04/04 12:55:15;;;;;;;7.43;2.00;;;21.30;37.00;;;;;;5084518;28;20093;-56
2021/04/04 12:57:42;;;;;;;8.45;1.30;;;21.30;37.00;;;;;;5094011;28;20048;-49
2021/04/04 13:00:16;;;;;;;5.05;1.35;;;21.30;37.30;;;;;;5082920;28;20032;-54
2021/04/04 13:02:53;;;;;;;5.30;1.42;;;21.30;37.30;;;;;;5094427;28;20107;-53
2021/04/04 13:05:19;;;;;;;7.25;1.60;;;21.30;37.10;;;;;;5091714;28;20135;-52
2021/04/04 13:07:45;;;;;;;9.65;1.58;;;21.30;37.30;;;;;;5076718;28;20100;-54
2021/04/04 13:10:11;;;;;;;8.35;1.30;;;21.30;37.30;;;;;;5083868;28;20033;-56
2021/04/04 13:12:38;;;;;;;4.43;1.70;;;21.30;36.30;;;;;;5080784;28;20033;-53